Time;durP1;ratioP1;P1;durP2;ratioP2;P2;SDS_P1;SDS_P2;PMS_P1;PMS_P2;Temp;Humidity;BMP_temperature;BMP_pressure;BME280_temperature;BME280_humidity;BME280_pressure;Samples;Min_cycle;Max_cycle;Signal;HPM_P1;HPM_P2
2021/05/09 00:00:48;;;;;;;0.60;0.55;;;;;;;8.72;70.45;98573.88;5070094;28;20032;-64
2021/05/09 00:03:13;;;;;;;0.70;0.65;;;;;;;8.74;70.20;98577.25;5070462;28;20029;-63
2021/05/09 00:05:39;;;;;;;0.60;0.60;;;;;;;8.81;70.49;98577.53;5070401;28;20495;-64
2021/05/09 00:08:16;;;;;;;1.52;0.60;;;;;;;8.82;70.13;98597.88;5070499;28;20035;-63
2021/05/09 00:10:42;;;;;;;1.50;0.65;;;;;;;8.75;69.92;98594.94;5070373;28;20135;-63
2021/05/09 00:13:24;;;;;;;0.50;0.50;;;;;;;8.70;70.08;98585.66;5070159;28;20032;-62
2021/05/09 00:15:51;;;;;;;1.75;0.50;;;;;;;8.71;69.79;98585.53;5070177;28;20037;-63
2021/05/09 00:18:17;;;;;;;0.55;0.55;;;;;;;8.67;69.79;98596.63;5069839;28;20060;-63
2021/05/09 00:20:43;;;;;;;0.95;0.63;;;;;;;8.73;69.64;98606.72;5069673;28;20119;-62
2021/05/09 00:23:08;;;;;;;0.60;0.50;;;;;;;8.78;69.61;98612.47;5070117;28;20029;-61
2021/05/09 00:25:34;;;;;;;0.55;0.55;;;;;;;8.70;69.43;98615.88;5070287;28;20106;-62
2021/05/09 00:28:10;;;;;;;0.50;0.50;;;;;;;8.27;69.54;98550.44;5069488;28;20044;-61
2021/05/09 00:30:36;;;;;;;0.45;0.45;;;;;;;8.63;69.43;98621.91;5069500;28;20043;-60
2021/05/09 00:33:17;;;;;;;0.47;0.47;;;;;;;8.63;69.16;98608.56;5069666;28;20033;-63
2021/05/09 00:35:42;;;;;;;0.85;0.68;;;;;;;8.53;69.00;98612.06;5069605;28;20036;-63
2021/05/09 00:38:08;;;;;;;0.88;0.60;;;;;;;8.61;68.86;98624.72;5069435;28;20024;-62
2021/05/09 00:40:34;;;;;;;0.50;0.50;;;;;;;8.61;68.75;98638.91;5068178;28;20040;-63
2021/05/09 00:43:11;;;;;;;0.40;0.40;;;;;;;8.59;68.83;98640.88;5046793;28;20079;-62
2021/05/09 00:45:37;;;;;;;1.05;0.80;;;;;;;8.55;68.64;98633.28;5047255;28;20072;-65
2021/05/09 00:48:02;;;;;;;1.10;0.70;;;;;;;8.59;68.50;98640.00;5047382;28;20492;-62
2021/05/09 00:50:28;;;;;;;0.80;0.70;;;;;;;8.15;68.03;98577.22;5047846;28;20087;-61
2021/05/09 00:52:55;;;;;;;0.90;0.65;;;;;;;8.55;68.30;98652.78;5051610;28;20835;-63
2021/05/09 00:55:22;;;;;;;1.27;0.70;;;;;;;8.50;68.43;98638.19;5051098;28;20090;-62
2021/05/09 00:57:47;;;;;;;0.93;0.47;;;;;;;8.52;68.34;98663.75;5051490;28;20427;-63
2021/05/09 01:00:14;;;;;;;2.17;0.75;;;;;;;8.52;68.16;98653.06;5052937;28;20100;-63
2021/05/09 01:02:42;;;;;;;0.93;0.60;;;;;;;8.54;68.14;98655.59;5045688;28;20103;-62
2021/05/09 01:05:09;;;;;;;0.93;0.70;;;;;;;8.53;68.13;98660.09;5032952;28;20045;-61
2021/05/09 01:07:34;;;;;;;1.42;0.60;;;;;;;8.54;68.24;98667.09;5033095;28;20090;-63
2021/05/09 01:10:00;;;;;;;0.93;0.88;;;;;;;8.46;68.46;98654.47;5032516;28;20119;-61
2021/05/09 01:12:27;;;;;;;2.10;0.80;;;;;;;8.56;68.11;98677.66;5032728;28;20032;-62
2021/05/09 01:14:52;;;;;;;0.50;0.50;;;;;;;8.55;68.07;98673.28;5032774;28;20120;-63
2021/05/09 01:17:18;;;;;;;0.60;0.60;;;;;;;8.40;68.07;98663.00;5032089;28;20159;-62
2021/05/09 01:19:44;;;;;;;0.88;0.57;;;;;;;8.40;67.80;98686.16;5032437;28;20065;-62
2021/05/09 01:22:11;;;;;;;1.10;0.80;;;;;;;8.47;68.16;98698.81;5032885;28;20034;-61
2021/05/09 01:24:37;;;;;;;0.65;0.65;;;;;;;8.47;68.34;98712.16;5032710;28;20065;-62
2021/05/09 01:27:04;;;;;;;0.68;0.60;;;;;;;8.44;67.92;98703.56;5032689;28;20064;-61
2021/05/09 01:29:31;;;;;;;0.52;0.38;;;;;;;8.46;67.88;98693.63;5032582;28;20040;-62
2021/05/09 01:31:56;;;;;;;1.65;0.85;;;;;;;8.18;67.80;98667.59;5032738;28;20473;-62
2021/05/09 01:34:22;;;;;;;0.77;0.70;;;;;;;8.12;67.89;98654.81;5030982;28;20036;-62
2021/05/09 01:36:47;;;;;;;0.70;0.70;;;;;;;8.26;67.90;98684.75;5032156;28;20119;-63
2021/05/09 01:39:13;;;;;;;0.65;0.65;;;;;;;8.38;67.67;98704.97;5032463;28;20102;-62
2021/05/09 01:41:39;;;;;;;1.20;0.80;;;;;;;8.35;67.65;98709.75;5032480;28;20158;-61
2021/05/09 01:44:05;;;;;;;0.50;0.50;;;;;;;8.40;67.80;98712.84;5032251;28;20033;-62
2021/05/09 01:46:30;;;;;;;1.48;0.88;;;;;;;8.28;68.00;98698.78;5031902;28;20040;-62
2021/05/09 01:48:56;;;;;;;0.80;0.68;;;;;;;8.09;68.01;98656.94;5032481;28;20128;-62
2021/05/09 01:51:22;;;;;;;0.60;0.60;;;;;;;8.40;68.05;98713.66;5032274;28;20037;-62
2021/05/09 01:53:48;;;;;;;0.73;0.70;;;;;;;8.07;68.14;98664.19;5031799;28;20088;-62
2021/05/09 01:56:17;;;;;;;1.00;0.60;;;;;;;8.12;68.15;98670.81;5031821;28;20040;-64
2021/05/09 01:58:43;;;;;;;0.30;0.30;;;;;;;8.28;68.14;98720.13;5032555;28;20034;-63
2021/05/09 02:01:10;;;;;;;0.60;0.50;;;;;;;8.33;68.25;98731.22;5032272;28;20033;-62
2021/05/09 02:03:36;;;;;;;0.60;0.57;;;;;;;8.32;68.23;98740.19;5031699;28;20374;-62
2021/05/09 02:06:03;;;;;;;0.60;0.57;;;;;;;8.36;67.95;98733.59;5031567;28;20044;-62
2021/05/09 02:08:28;;;;;;;1.08;0.50;;;;;;;8.30;68.51;98745.66;5032058;28;20034;-62
2021/05/09 02:10:54;;;;;;;0.88;0.63;;;;;;;8.17;68.54;98727.22;5032182;28;20132;-62
2021/05/09 02:13:19;;;;;;;0.68;0.60;;;;;;;7.86;68.15;98673.97;5031586;28;20091;-62
2021/05/09 02:15:45;;;;;;;1.23;0.55;;;;;;;8.26;68.52;98754.91;5031598;28;20065;-62
2021/05/09 02:18:10;;;;;;;0.73;0.60;;;;;;;8.24;68.16;98748.03;5032267;28;20033;-61
2021/05/09 02:20:36;;;;;;;0.68;0.50;;;;;;;8.21;68.32;98766.97;5031861;28;20033;-63
2021/05/09 02:23:02;;;;;;;1.45;0.65;;;;;;;8.16;68.44;98759.38;5031109;28;20025;-63
2021/05/09 02:25:27;;;;;;;1.30;0.70;;;;;;;7.52;68.10;98649.44;5031104;28;20140;-64
2021/05/09 02:27:53;;;;;;;1.85;0.70;;;;;;;8.10;68.23;98739.41;5031861;28;20057;-63
2021/05/09 02:30:20;;;;;;;0.70;0.70;;;;;;;8.25;68.31;98763.06;5031378;28;20056;-62
2021/05/09 02:32:46;;;;;;;1.05;0.70;;;;;;;8.00;68.25;98711.91;5031079;28;20466;-61
2021/05/09 02:35:12;;;;;;;0.90;0.70;;;;;;;8.32;68.04;98780.19;5031330;28;20026;-61
2021/05/09 02:37:37;;;;;;;0.98;0.60;;;;;;;8.37;67.84;98785.97;5031664;28;20030;-62
2021/05/09 02:40:07;;;;;;;1.65;0.60;;;;;;;8.42;67.55;98788.22;5031023;28;20217;-61
2021/05/09 02:42:33;;;;;;;1.15;0.60;;;;;;;8.32;67.67;98793.53;5030921;28;20049;-61
2021/05/09 02:44:58;;;;;;;0.90;0.57;;;;;;;8.36;67.59;98794.94;5031041;28;20539;-63
2021/05/09 02:47:30;;;;;;;2.38;0.60;;;;;;;8.19;67.66;98759.09;5031332;28;20481;-63
2021/05/09 02:50:00;;;;;;;0.65;0.60;;;;;;;8.50;67.36;98803.59;5030885;28;20398;-62
2021/05/09 02:52:26;;;;;;;1.48;0.70;;;;;;;8.53;67.58;98814.00;5031131;28;20046;-62
2021/05/09 02:54:52;;;;;;;1.20;0.82;;;;;;;8.26;67.27;98768.25;5031084;28;20036;-62
2021/05/09 02:57:17;;;;;;;0.77;0.77;;;;;;;8.61;66.92;98811.47;5031323;28;20033;-63
2021/05/09 02:59:43;;;;;;;1.63;0.93;;;;;;;8.59;66.79;98808.09;5030917;28;20033;-61
2021/05/09 03:02:09;;;;;;;0.80;0.80;;;;;;;8.58;66.94;98820.63;5031082;28;20048;-61
2021/05/09 03:04:34;;;;;;;2.47;0.95;;;;;;;8.54;66.67;98816.50;5046114;28;20056;-62
2021/05/09 03:07:00;;;;;;;0.55;0.50;;;;;;;8.53;66.42;98811.31;5030545;28;20041;-63
2021/05/09 03:09:25;;;;;;;4.03;1.00;;;;;;;8.58;66.44;98828.63;5030919;28;20037;-63
2021/05/09 03:11:51;;;;;;;0.90;0.70;;;;;;;8.32;66.05;98777.53;5030450;28;20049;-63
2021/05/09 03:14:16;;;;;;;1.80;0.85;;;;;;;8.29;65.93;98769.81;5028867;28;20442;-62
2021/05/09 03:16:41;;;;;;;1.88;0.98;;;;;;;8.73;65.64;98846.91;5030951;28;20044;-62
2021/05/09 03:19:15;;;;;;;1.70;0.80;;;;;;;8.73;65.34;98849.56;5030810;28;20030;-61
2021/05/09 03:21:41;;;;;;;0.80;0.80;;;;;;;8.58;65.47;98814.41;5029574;28;20558;-61
2021/05/09 03:24:10;;;;;;;1.42;0.70;;;;;;;8.69;65.14;98833.00;5030636;28;20060;-63
2021/05/09 03:26:36;;;;;;;2.28;0.80;;;;;;;8.40;64.59;98796.34;5031090;28;20128;-62
2021/05/09 03:29:03;;;;;;;0.75;0.70;;;;;;;8.75;64.28;98845.78;5030166;28;20068;-62
2021/05/09 03:31:28;;;;;;;1.52;0.80;;;;;;;8.73;64.16;98853.09;5030346;28;20033;-62
2021/05/09 03:33:54;;;;;;;0.40;0.40;;;;;;;8.44;63.54;98804.94;5030595;28;20040;-62
2021/05/09 03:36:19;;;;;;;0.65;0.63;;;;;;;8.81;63.18;98864.91;5030931;28;20029;-62
2021/05/09 03:38:45;;;;;;;0.80;0.68;;;;;;;8.76;63.00;98858.16;5030116;28;20041;-62
2021/05/09 03:41:10;;;;;;;1.00;0.65;;;;;;;8.82;62.96;98871.94;5030078;28;20076;-62
2021/05/09 03:43:36;;;;;;;1.33;0.80;;;;;;;8.74;63.22;98865.44;5030623;28;20416;-61
2021/05/09 03:46:01;;;;;;;1.92;0.80;;;;;;;8.83;62.99;98881.63;5030781;28;20032;-63
2021/05/09 03:48:27;;;;;;;0.73;0.73;;;;;;;8.81;63.06;98873.78;5029982;28;20084;-62
2021/05/09 03:50:52;;;;;;;1.23;0.75;;;;;;;8.81;63.09;98880.91;5030210;28;20181;-63
2021/05/09 03:53:18;;;;;;;0.70;0.70;;;;;;;8.81;63.07;98895.13;5030707;28;20045;-62
2021/05/09 03:55:43;;;;;;;0.80;0.80;;;;;;;8.78;63.10;98913.22;5030990;28;20056;-61
2021/05/09 03:58:09;;;;;;;0.80;0.80;;;;;;;8.76;62.91;98892.84;5029784;28;20037;-60
2021/05/09 04:00:34;;;;;;;1.83;0.80;;;;;;;8.75;62.93;98893.84;5029289;28;20067;-61
2021/05/09 04:03:00;;;;;;;1.35;0.90;;;;;;;8.69;63.37;98888.19;5030122;28;20034;-62
2021/05/09 04:05:25;;;;;;;2.47;0.80;;;;;;;8.65;63.06;98890.25;5030362;28;20040;-62
2021/05/09 04:07:51;;;;;;;1.10;1.00;;;;;;;8.71;63.40;98904.91;5030231;28;20041;-62
2021/05/09 04:10:17;;;;;;;1.58;0.90;;;;;;;8.73;63.22;98917.16;5030069;28;20453;-61
2021/05/09 04:12:42;;;;;;;1.10;1.00;;;;;;;8.64;62.95;98901.91;5030556;28;20064;-62
2021/05/09 04:15:08;;;;;;;1.20;0.85;;;;;;;8.66;63.13;98923.97;5030252;28;20033;-64
2021/05/09 04:17:34;;;;;;;2.63;1.02;;;;;;;8.63;63.16;98924.25;5029959;28;20033;-62
2021/05/09 04:19:59;;;;;;;1.48;1.17;;;;;;;8.63;63.00;98945.59;5028160;28;20048;-62
2021/05/09 04:22:25;;;;;;;1.45;0.90;;;;;;;8.54;63.04;98928.56;5029686;28;20040;-62
2021/05/09 04:24:51;;;;;;;0.90;0.90;;;;;;;8.60;62.52;98938.72;5029813;28;20049;-61
2021/05/09 04:27:16;;;;;;;0.90;0.88;;;;;;;8.46;62.48;98921.22;5032594;28;20101;-63
2021/05/09 04:29:42;;;;;;;1.10;0.90;;;;;;;8.42;62.18;98917.09;5033475;28;20058;-62
2021/05/09 04:32:07;;;;;;;2.28;1.58;;;;;;;8.62;62.11;98957.25;5033321;28;20095;-62
2021/05/09 04:34:33;;;;;;;1.10;0.90;;;;;;;8.56;61.57;98957.78;5033513;28;20049;-63
2021/05/09 04:36:58;;;;;;;4.32;0.95;;;;;;;8.46;61.26;98947.88;5033108;28;20497;-62
2021/05/09 04:39:24;;;;;;;1.20;0.60;;;;;;;8.45;61.06;98970.19;5033629;28;20037;-63
2021/05/09 04:41:49;;;;;;;0.95;0.60;;;;;;;8.42;61.13;98975.78;5033334;28;20516;-63
2021/05/09 04:44:15;;;;;;;0.63;0.63;;;;;;;8.41;60.90;98978.59;5034015;28;20041;-65
2021/05/09 04:46:40;;;;;;;0.70;0.52;;;;;;;8.24;60.79;98953.38;5032962;28;20068;-63
2021/05/09 04:49:06;;;;;;;0.70;0.68;;;;;;;8.31;60.17;98960.69;5033389;28;20448;-61
2021/05/09 04:51:32;;;;;;;2.30;0.65;;;;;;;8.45;59.97;98983.53;5033399;28;20404;-62
2021/05/09 04:53:58;;;;;;;2.13;0.60;;;;;;;8.47;59.36;98970.91;5033056;28;20033;-63
2021/05/09 04:56:24;;;;;;;1.42;0.60;;;;;;;8.50;59.39;99007.16;5033385;28;20030;-62
2021/05/09 04:58:49;;;;;;;3.05;0.70;;;;;;;8.52;59.15;99001.72;5033117;28;20434;-63
2021/05/09 05:01:14;;;;;;;0.77;0.60;;;;;;;8.44;58.80;98973.84;5032936;28;20069;-62
2021/05/09 05:03:40;;;;;;;0.80;0.80;;;;;;;8.70;58.53;99001.94;5033085;28;20029;-62
2021/05/09 05:06:06;;;;;;;1.27;0.75;;;;;;;8.50;58.07;98980.50;5032895;28;20120;-62
2021/05/09 05:08:33;;;;;;;1.90;0.80;;;;;;;8.71;57.92;99019.66;5032594;28;20445;-62
2021/05/09 05:11:00;;;;;;;1.05;0.73;;;;;;;8.71;58.19;99020.50;5032897;28;20041;-62
2021/05/09 05:13:31;;;;;;;0.52;0.40;;;;;;;8.71;58.01;99025.84;5033151;28;20041;-62
2021/05/09 05:16:00;;;;;;;1.15;0.68;;;;;;;8.69;57.86;99021.59;5032676;28;20090;-62
2021/05/09 05:18:26;;;;;;;1.15;0.60;;;;;;;8.66;57.60;99017.38;5032341;28;20037;-62
2021/05/09 05:20:53;;;;;;;1.10;0.60;;;;;;;8.36;57.31;98968.31;5033018;28;20086;-62
2021/05/09 05:23:19;;;;;;;0.63;0.63;;;;;;;8.82;57.32;99032.06;5032920;28;20069;-60
2021/05/09 05:25:45;;;;;;;1.48;0.60;;;;;;;8.85;57.06;99038.00;5030839;28;20529;-61
2021/05/09 05:28:11;;;;;;;2.03;0.57;;;;;;;9.10;56.82;99040.34;5032146;28;20636;-62
2021/05/09 05:30:37;;;;;;;1.88;0.60;;;;;;;9.23;56.20;99041.00;5032626;28;20037;-62
2021/05/09 05:33:04;;;;;;;0.63;0.60;;;;;;;9.33;55.93;99028.50;5032398;28;20044;-60
2021/05/09 05:35:29;;;;;;;0.70;0.70;;;;;;;9.52;55.85;99050.06;5032386;28;20034;-62
2021/05/09 05:37:56;;;;;;;0.98;0.70;;;;;;;9.61;55.43;99066.13;5031807;28;20087;-62
2021/05/09 05:40:23;;;;;;;1.15;0.70;;;;;;;9.51;55.47;99053.72;5032972;28;20149;-61
2021/05/09 05:42:50;;;;;;;0.82;0.68;;;;;;;9.53;55.57;99084.69;5032420;28;20080;-62
2021/05/09 05:45:15;;;;;;;1.05;0.60;;;;;;;9.40;55.73;99074.22;5031749;28;20105;-62
2021/05/09 05:47:41;;;;;;;2.25;0.45;;;;;;;9.35;55.63;99073.78;5032424;28;20069;-62
2021/05/09 05:50:08;;;;;;;1.48;0.88;;;;;;;9.47;55.42;99090.56;5032431;28;20485;-61
2021/05/09 05:52:33;;;;;;;1.73;0.70;;;;;;;9.46;55.17;99092.38;5031883;28;20044;-63
2021/05/09 05:54:59;;;;;;;0.70;0.70;;;;;;;9.53;55.06;99111.41;5031838;28;20038;-61
2021/05/09 05:57:25;;;;;;;1.52;0.70;;;;;;;9.46;54.99;99116.44;5031919;28;20120;-60
2021/05/09 05:59:50;;;;;;;0.70;0.55;;;;;;;9.41;54.93;99118.66;5032634;28;20172;-63
2021/05/09 06:02:16;;;;;;;0.47;0.47;;;;;;;9.32;54.86;99131.00;5031752;28;20416;-61
2021/05/09 06:04:42;;;;;;;2.38;0.40;;;;;;;9.21;54.97;99144.44;5031723;28;20032;-62
2021/05/09 06:07:09;;;;;;;0.65;0.65;;;;;;;9.08;55.37;99138.44;5031490;28;20106;-61
2021/05/09 06:09:34;;;;;;;1.00;0.65;;;;;;;9.05;55.21;99134.25;5031996;28;20074;-61
2021/05/09 06:12:00;;;;;;;0.70;0.70;;;;;;;9.10;54.79;99131.16;5031634;28;20424;-61
2021/05/09 06:14:25;;;;;;;0.80;0.80;;;;;;;8.85;54.67;99101.22;5031482;28;20045;-62
2021/05/09 06:16:52;;;;;;;0.55;0.55;;;;;;;9.10;54.60;99153.38;5031622;28;20049;-62
2021/05/09 06:19:17;;;;;;;2.35;0.70;;;;;;;9.05;54.18;99137.72;5031732;28;20036;-61
2021/05/09 06:21:43;;;;;;;0.60;0.60;;;;;;;9.08;54.07;99149.13;5031711;28;20168;-61
2021/05/09 06:24:10;;;;;;;1.30;0.63;;;;;;;9.10;54.18;99148.03;5032710;28;20068;-60
2021/05/09 06:26:35;;;;;;;0.68;0.50;;;;;;;8.88;54.53;99109.81;5030948;28;20045;-61
2021/05/09 06:29:01;;;;;;;0.70;0.52;;;;;;;9.10;54.34;99147.19;5030863;28;20507;-62
2021/05/09 06:31:26;;;;;;;0.80;0.57;;;;;;;9.14;54.23;99144.13;5035960;28;20031;-61
2021/05/09 06:33:52;;;;;;;1.70;0.80;;;;;;;9.19;53.69;99147.22;5040147;28;20045;-62
2021/05/09 06:36:17;;;;;;;2.78;1.30;;;;;;;9.07;54.09;99147.44;5040219;28;20104;-61
2021/05/09 06:38:43;;;;;;;3.17;1.30;;;;;;;9.02;54.30;99146.00;5041732;28;20554;-61
2021/05/09 06:41:09;;;;;;;3.05;1.40;;;;;;;9.00;54.35;99158.66;5039460;28;20032;-61
2021/05/09 06:43:34;;;;;;;3.13;1.30;;;;;;;9.11;54.31;99167.56;5035055;28;20037;-61
2021/05/09 06:46:01;;;;;;;2.05;1.15;;;;;;;9.16;54.33;99168.00;5030890;28;20030;-61
2021/05/09 06:48:27;;;;;;;4.38;1.30;;;;;;;9.29;54.50;99186.53;5030389;28;20033;-61
2021/05/09 06:50:52;;;;;;;4.13;1.00;;;;;;;9.32;54.05;99178.25;5028253;28;20041;-62
2021/05/09 06:53:18;;;;;;;2.20;1.00;;;;;;;9.33;53.49;99170.09;5029144;28;20095;-62
2021/05/09 06:55:45;;;;;;;1.42;1.00;;;;;;;9.39;53.60;99173.19;5030564;28;20033;-62
2021/05/09 06:58:11;;;;;;;1.52;1.05;;;;;;;9.25;53.62;99174.38;5030589;28;20124;-61
2021/05/09 07:00:37;;;;;;;2.80;1.10;;;;;;;9.30;53.69;99191.72;5031124;28;20037;-62
2021/05/09 07:03:04;;;;;;;2.78;1.15;;;;;;;9.14;53.91;99192.19;5029030;28;20041;-63
2021/05/09 07:05:29;;;;;;;1.55;0.98;;;;;;;9.07;54.35;99208.84;5032802;28;20207;-60
2021/05/09 07:07:56;;;;;;;1.40;1.10;;;;;;;8.96;54.52;99218.63;5031169;28;20052;-61
2021/05/09 07:10:26;;;;;;;1.35;1.20;;;;;;;8.43;54.49;99140.19;5030613;28;20029;-64
2021/05/09 07:12:51;;;;;;;1.67;1.20;;;;;;;8.79;54.62;99214.69;5030440;28;20497;-62
2021/05/09 07:15:30;;;;;;;1.20;1.00;;;;;;;8.84;54.74;99241.00;5030880;28;20099;-63
2021/05/09 07:18:04;;;;;;;1.10;0.95;;;;;;;8.76;54.71;99271.84;5029698;28;20541;-62
2021/05/09 07:20:32;;;;;;;1.85;1.20;;;;;;;8.32;55.17;99185.59;5029936;28;20038;-61
2021/05/09 07:22:58;;;;;;;1.70;1.30;;;;;;;8.32;54.96;99206.91;5030573;28;20072;-63
2021/05/09 07:25:24;;;;;;;1.00;0.68;;;;;;;8.60;55.30;99258.06;5029641;28;20110;-63
2021/05/09 07:27:50;;;;;;;1.38;1.17;;;;;;;8.59;55.36;99278.56;5030567;28;20146;-61
2021/05/09 07:30:16;;;;;;;2.17;1.20;;;;;;;8.51;55.35;99256.97;5030492;28;20168;-64
2021/05/09 07:32:41;;;;;;;1.10;1.00;;;;;;;8.58;55.61;99265.34;5033723;28;20111;-62
2021/05/09 07:35:07;;;;;;;1.23;1.13;;;;;;;8.52;55.84;99271.19;5043931;28;20542;-61
2021/05/09 07:37:33;;;;;;;3.00;1.40;;;;;;;8.50;55.86;99265.97;5038738;28;20116;-60
2021/05/09 07:39:58;;;;;;;1.38;1.10;;;;;;;8.27;55.77;99235.78;5039831;28;20064;-64
2021/05/09 07:42:24;;;;;;;1.90;1.40;;;;;;;8.59;56.07;99264.38;5038409;28;20049;-61
2021/05/09 07:44:54;;;;;;;2.38;1.30;;;;;;;8.83;55.68;99263.31;5039355;28;20515;-61
2021/05/09 07:47:19;;;;;;;2.83;1.42;;;;;;;8.88;55.16;99250.44;5043258;28;20085;-60
2021/05/09 07:49:45;;;;;;;2.58;1.40;;;;;;;8.97;54.86;99260.38;5037271;28;20040;-61
2021/05/09 07:52:10;;;;;;;1.55;1.30;;;;;;;8.99;54.39;99262.91;5078625;28;20121;-63
2021/05/09 07:54:36;;;;;;;2.47;1.40;;;;;;;9.19;54.31;99279.94;5042102;28;20033;-62
2021/05/09 07:57:01;;;;;;;1.65;1.33;;;;;;;9.12;54.00;99278.75;5049470;28;20053;-62
2021/05/09 07:59:28;;;;;;;1.30;1.20;;;;;;;8.94;54.21;99273.13;5050233;28;20037;-62
2021/05/09 08:01:53;;;;;;;4.25;1.42;;;;;;;9.09;54.13;99311.91;5052585;28;20041;-62
2021/05/09 08:04:19;;;;;;;3.25;2.08;;;;;;;9.16;53.78;99293.53;5054413;28;20043;-62
2021/05/09 08:06:44;;;;;;;2.85;1.63;;;;;;;9.12;53.62;99294.75;5054495;28;20037;-65
2021/05/09 08:09:10;;;;;;;2.60;1.90;;;;;;;9.09;53.78;99305.72;5036009;28;20106;-62
2021/05/09 08:11:35;;;;;;;2.10;1.50;;;;;;;9.05;54.14;99313.16;5054293;28;20040;-65
2021/05/09 08:14:01;;;;;;;4.65;1.52;;;;;;;9.03;53.68;99291.91;5036872;28;20029;-64
2021/05/09 08:16:26;;;;;;;4.32;1.50;;;;;;;9.16;53.55;99304.22;5036836;28;20038;-62
2021/05/09 08:18:52;;;;;;;3.42;1.30;;;;;;;9.36;53.33;99317.72;5054276;28;20033;-63
2021/05/09 08:21:17;;;;;;;3.65;1.55;;;;;;;9.46;52.87;99306.16;5054071;28;20037;-61
2021/05/09 08:23:44;;;;;;;1.30;1.20;;;;;;;9.63;52.22;99293.19;5054069;28;20036;-64
2021/05/09 08:26:12;;;;;;;2.53;1.40;;;;;;;9.90;51.02;99311.38;5036267;28;20066;-65
2021/05/09 08:28:40;;;;;;;2.05;1.13;;;;;;;10.10;50.77;99311.44;5036055;28;20047;-62
2021/05/09 08:31:06;;;;;;;1.73;1.00;;;;;;;10.34;49.87;99329.00;5051390;28;20234;-63
2021/05/09 08:33:31;;;;;;;1.20;1.10;;;;;;;10.43;49.90;99328.25;5049796;28;20120;-63
2021/05/09 08:35:57;;;;;;;3.05;1.55;;;;;;;10.39;49.53;99316.09;5067556;28;20056;-63
2021/05/09 08:38:24;;;;;;;2.53;1.30;;;;;;;10.40;49.45;99349.03;5045882;28;20128;-63
2021/05/09 08:40:49;;;;;;;1.80;1.60;;;;;;;10.37;49.52;99368.03;5065031;28;20051;-63
2021/05/09 08:43:15;;;;;;;1.60;1.17;;;;;;;10.23;49.17;99350.50;5055102;28;20033;-63
2021/05/09 08:45:41;;;;;;;2.30;1.27;;;;;;;10.27;49.49;99357.28;5039973;28;20450;-66
2021/05/09 08:48:12;;;;;;;1.80;1.30;;;;;;;10.30;49.55;99362.38;5028113;28;20035;-63
2021/05/09 08:50:38;;;;;;;2.35;1.27;;;;;;;10.46;49.43;99360.09;5055684;28;20506;-63
2021/05/09 08:53:03;;;;;;;1.65;1.27;;;;;;;10.72;48.61;99374.81;5057554;28;20033;-64
2021/05/09 08:55:29;;;;;;;1.73;1.50;;;;;;;10.88;48.62;99379.69;5085389;28;20187;-62
2021/05/09 08:57:56;;;;;;;1.75;1.60;;;;;;;10.96;48.32;99376.28;5058034;28;20423;-64
2021/05/09 09:00:23;;;;;;;4.03;1.50;;;;;;;10.87;48.39;99380.66;5063383;28;20488;-62
2021/05/09 09:02:48;;;;;;;1.63;1.52;;;;;;;10.90;48.08;99372.34;5080776;28;20420;-63
2021/05/09 09:05:14;;;;;;;3.00;1.40;;;;;;;10.95;48.01;99380.81;5056113;28;20033;-63
2021/05/09 09:07:48;;;;;;;1.80;1.45;;;;;;;10.93;47.90;99396.19;5068490;28;20041;-63
2021/05/09 09:10:48;;;;;;;2.10;1.45;;;;;;;10.81;48.34;99408.81;5059064;28;20039;-62
2021/05/09 09:13:24;;;;;;;1.50;1.40;;;;;;;10.62;48.98;99406.94;5054475;28;20055;-61
2021/05/09 09:16:04;;;;;;;5.10;1.85;;;;;;;10.44;49.22;99415.59;5057038;28;20124;-61
2021/05/09 09:18:31;;;;;;;3.22;1.50;;;;;;;10.32;49.93;99408.56;5062488;28;20033;-62
2021/05/09 09:20:58;;;;;;;2.47;1.45;;;;;;;10.20;49.95;99426.53;5081860;28;20090;-61
2021/05/09 09:23:43;;;;;;;2.20;1.85;;;;;;;9.90;49.96;99391.59;5055438;28;20075;-61
2021/05/09 09:26:31;;;;;;;2.72;1.70;;;;;;;10.05;50.43;99437.56;5069985;28;20102;-62
2021/05/09 09:28:58;;;;;;;2.17;1.77;;;;;;;9.97;50.40;99439.19;5058052;28;20408;-61
2021/05/09 09:31:37;;;;;;;3.28;1.60;;;;;;;9.97;49.91;99440.03;5068217;28;20029;-62
2021/05/09 09:34:03;;;;;;;1.63;1.42;;;;;;;9.89;50.22;99448.72;5046681;28;20694;-62
2021/05/09 09:36:29;;;;;;;2.85;1.88;;;;;;;9.94;50.24;99442.97;5050491;28;20109;-64
2021/05/09 09:38:54;;;;;;;2.47;1.90;;;;;;;9.97;50.45;99433.84;5049421;28;20043;-62
2021/05/09 09:41:22;;;;;;;4.25;1.70;;;;;;;10.09;49.95;99448.00;5068948;28;20139;-61
2021/05/09 09:44:01;;;;;;;1.58;1.42;;;;;;;10.32;49.66;99446.03;5070107;28;20043;-62
2021/05/09 09:46:33;;;;;;;2.00;1.70;;;;;;;10.30;49.01;99450.66;5066543;28;20056;-62
2021/05/09 09:48:59;;;;;;;3.08;1.70;;;;;;;10.39;49.28;99452.56;5067928;28;20032;-63
2021/05/09 09:51:26;;;;;;;1.70;1.60;;;;;;;10.41;49.37;99441.75;5068201;28;20073;-62
2021/05/09 09:53:53;;;;;;;2.55;1.50;;;;;;;10.39;48.90;99457.94;5067673;28;20500;-63
2021/05/09 09:56:25;;;;;;;2.60;1.60;;;;;;;10.35;48.50;99464.50;5067933;28;20035;-62
2021/05/09 09:58:58;;;;;;;3.50;1.83;;;;;;;10.42;48.96;99475.56;5070885;28;20029;-61
2021/05/09 10:01:28;;;;;;;2.53;1.80;;;;;;;10.43;48.52;99472.78;5071638;28;20040;-62
2021/05/09 10:04:04;;;;;;;4.05;1.50;;;;;;;10.46;48.60;99469.81;5071826;28;20492;-63
2021/05/09 10:06:31;;;;;;;3.40;1.58;;;;;;;10.53;48.71;99471.97;5072082;28;20039;-61
2021/05/09 10:09:00;;;;;;;2.03;1.83;;;;;;;10.61;48.34;99477.53;5070659;28;20036;-61
2021/05/09 10:11:28;;;;;;;2.35;1.98;;;;;;;10.58;48.52;99475.94;5070748;28;20032;-61
2021/05/09 10:13:54;;;;;;;2.63;1.60;;;;;;;10.67;48.74;99473.44;5071607;28;20094;-62
2021/05/09 10:16:22;;;;;;;6.65;3.55;;;;;;;10.76;48.28;99494.91;5071477;28;20523;-62
2021/05/09 10:18:52;;;;;;;4.35;3.10;;;;;;;10.83;48.50;99497.91;5071478;28;20500;-61
2021/05/09 10:21:17;;;;;;;2.55;1.90;;;;;;;10.89;48.69;99494.69;5069897;28;20024;-62
2021/05/09 10:24:13;;;;;;;2.63;1.95;;;;;;;11.02;48.17;99499.00;5071008;28;20037;-61
2021/05/09 10:26:44;;;;;;;3.72;1.67;;;;;;;10.93;48.22;99495.28;5070525;28;20151;-61
2021/05/09 10:29:34;;;;;;;2.88;1.80;;;;;;;11.07;48.63;99523.53;5071649;28;20118;-62
2021/05/09 10:32:09;;;;;;;3.38;1.60;;;;;;;11.03;48.22;99525.63;5065086;28;20070;-62
2021/05/09 10:35:04;;;;;;;2.70;1.57;;;;;;;11.27;47.91;99519.09;5071800;28;20044;-61
2021/05/09 10:37:40;;;;;;;1.83;1.40;;;;;;;11.36;48.02;99522.78;5070349;28;20051;-63
2021/05/09 10:40:35;;;;;;;1.50;1.40;;;;;;;11.54;48.07;99530.19;5071725;28;20060;-63
2021/05/09 10:43:04;;;;;;;2.35;1.70;;;;;;;11.54;47.01;99525.66;5071567;28;20097;-61
2021/05/09 10:45:35;;;;;;;3.35;1.77;;;;;;;11.46;47.21;99538.91;5071411;28;20567;-61
2021/05/09 10:48:32;;;;;;;1.38;1.27;;;;;;;11.49;46.64;99541.31;5071224;28;20507;-61
2021/05/09 10:51:03;;;;;;;;;;;;;;;11.66;46.86;99542.47;5062899;28;20036;-62
2021/05/09 10:53:35;;;;;;;1.60;1.50;;;;;;;11.66;46.60;99542.47;5071211;28;19955;-61
2021/05/09 10:56:03;;;;;;;2.13;1.73;;;;;;;11.76;46.70;99561.25;5071092;28;20090;-63
2021/05/09 10:58:48;;;;;;;2.33;1.85;;;;;;;11.95;46.66;99560.47;5070973;28;20119;-62
2021/05/09 11:01:13;;;;;;;2.53;1.90;;;;;;;11.97;46.45;99569.22;5060960;28;20056;-64
2021/05/09 11:03:39;;;;;;;3.90;1.73;;;;;;;12.11;46.39;99565.31;5050376;28;20032;-62
2021/05/09 11:06:12;;;;;;;2.05;1.85;;;;;;;12.29;46.25;99564.59;5050932;28;20037;-62
2021/05/09 11:08:52;;;;;;;2.70;1.80;;;;;;;12.23;46.25;99570.53;5065956;28;20570;-62
2021/05/09 11:11:23;;;;;;;3.35;1.40;;;;;;;12.17;45.93;99564.75;5070508;28;20060;-62
2021/05/09 11:13:57;;;;;;;2.05;1.70;;;;;;;12.31;46.23;99581.44;5070321;28;20416;-63
2021/05/09 11:16:37;;;;;;;1.75;1.65;;;;;;;12.31;45.90;99590.31;5070771;28;20040;-63
2021/05/09 11:19:11;;;;;;;2.70;1.80;;;;;;;12.29;46.37;99580.69;5070344;28;20160;-62
2021/05/09 11:21:40;;;;;;;2.30;1.83;;;;;;;12.30;46.01;99590.47;5070337;28;20415;-61
2021/05/09 11:24:08;;;;;;;3.03;1.58;;;;;;;12.41;45.62;99586.78;5067626;28;20176;-63
2021/05/09 11:26:41;;;;;;;7.28;1.70;;;;;;;12.54;45.42;99591.84;5030693;28;20041;-64
2021/05/09 11:29:14;;;;;;;4.55;1.88;;;;;;;12.62;45.08;99586.63;5030988;28;20049;-62
2021/05/09 11:31:46;;;;;;;3.88;1.80;;;;;;;12.87;44.58;99592.38;5030165;28;20041;-63
2021/05/09 11:34:12;;;;;;;2.22;1.80;;;;;;;12.90;44.49;99582.22;5030280;28;20472;-63
2021/05/09 11:36:39;;;;;;;6.07;2.00;;;;;;;13.19;44.29;99600.09;5029971;28;20099;-62
2021/05/09 11:39:16;;;;;;;3.60;1.75;;;;;;;13.38;43.17;99601.00;5030555;28;20083;-62
2021/05/09 11:41:58;;;;;;;2.10;1.50;;;;;;;13.50;43.64;99601.69;5030417;28;20072;-62